Fort Pierce, FL

5:24 PM EDT on August 23, 2014 (GMT -0400)
Saint Lucie County International | Change Station
CLOSE
Current Station
Airport
Location: Ft Pierce,
Elevation: 23 ft
Nearby Weather Stations

Elev 23 ft 27.50 °N, 80.38 °W | Updated 31 minutes ago

Clear
Clear
90 °F
Feels Like 95 °F
N
10
Wind Variable Wind from East

Today
High -- | Low -- °F
--% Chance of Precip.
Yesterday
High -- | Low -- °F
Precip. -- in
6:56 AM 7:51 PM
Waning Crescent, 3% visible
Pressure 29.89 in
Visibility 10.0 miles
Clouds Clear
Heat Index 95 °F
Dew Point 70 °F
Humidity 52%
Rainfall 0.00 in
Snow Depth Not available.
UV 6 out of 12
Pollen 5.30 out of 12
Air Quality Not available.
Flu Activity Not available.
METAR KFPR 232053Z 09009KT 10SM CLR 32/21 A2989

More Conditions Fewer Conditions

Pressure 29.89 in
Visibility 10.0 miles
Clouds Clear
Heat Index 95 °F
Dew Point 70 °F
Humidity 52%
Rainfall 0.00 in
Snow Depth Not available.
UV 6 out of 12
Pollen 5.30 out of 12
Air Quality Not available.
Flu Activity Not available.
METAR KFPR 232053Z 09009KT 10SM CLR 32/21 A2989

More Conditions Fewer Conditions

Nowcast | as of 5:05 PM EDT on August 23, 2014

Strong storms capable of producing gusts of 45 to 55 mph will occur in southwest Orange County through 6 PM. More storms will move south to southwest at 10 to 15 mph across North Lake...Seminole and areas north of Orlando. The stronger storms will be capable of producing wind gusts to 45 mph. More storms will occur around the northeast shoreline of Lake Okeechobee. Gusts to 40 mph will be possible in the stronger storms. Additional details...including graphics are available online at: http://www.Srh.NOAA.Gov/mlb/blog.Php

×

10-Day Weather Forecast

Almanac

Astronomy

Aug. 23, 2014 Rise Set
Actual Time 6:56 AM EDT 7:51 PM EDT
Civil Twilight 6:32 AM EDT 8:15 PM EDT
Nautical Twilight 6:03 AM EDT 8:43 PM EDT
Astronomical Twilight 5:34 AM EDT 9:13 PM EDT
Moon 5:14 AM EDT 6:33 PM EDT
Length of Visible Light 13h 43m
Length of Day
12h 55m
Tomorrow will be 1m 30s shorter.
Waning Crescent, 3% of the Moon is Illuminated
Today
Waning Crescent
Aug 25
New
Sep 2
First Quarter
Sep 8
Full
Sep 15
Last Quarter

Today's Extremes

State Highs State Lows

Community

WunderPhotos

Upload Photos

1,746,628 photos uploaded!

WunderBlogs® & News

By Dr. Jeff Masters
Director of Meteorology, Weather Underground
By Kari Strenfel
Meteorologist, Weather Underground
By Christopher C. Burt
Weather Historian, Weather Underground
August 23, 2014
August 23, 2014
August 23, 2014

Nearby

Snow Depth

Station Depth Elevation
No new snow has been reported.

Earthquake Activity

City Distance Mag. Time & Date
No recent earthquake activity has been reported nearby.
Minimum magnitude displayed is 2.5.

Coastal Water Temperatures

Place Temperature
Lake Worth, FL 88.0 °F
Trident Pier, FL 82.9 °F
Virginia Key, FL 90.0 °F

Nearby Weather Stations